Launceston, United Kingdom
Current Conditions -  °F | °C
As of 1:20 PM on Friday 28 Nov 2014 (Local Time) from EGHQ Reporting Station
Clear Clear  
Wind Chill: 55°   Ceiling: Unl
Heat Index: 55°   Visibility: 6mi
Dew Point: 48°   Wind: 23mph
Humidity: 77%   Direction: 100°E
Pressure: 29.41"   Gusts: 35mph
Location:  50.64°N, 4.36°W
Report Text: EGHQ 281320Z 10020G30KT CAVOK 13/09 Q0996
Loading
Personal Weather Stations






























Interactive Weather Map New forecast layout! Learn more

10-Day Weather Forecast

Advertisements
Track Severe Weather on mobile